• Join FlightAware (Why Join?)
  • Login
  • US Flag 
01:39AM EDT


 

Airport Tracker/Info


-or-


 

Live Flight TrackerFlight Track Log ✈ CTL13 ✈ 25-Apr-2013 ✈ KEYE - KMDW

Flight Track Log - Related Links

Times and Time Zones

All times are in EDT time to prevent confusion due to time zone crossing. See the CTL13 flight status page for this flight to view local times or setup timezone preferences in your user account.

Time Position Orientation Groundspeed Altitude Reporting Facility
EDT Latitude Longitude Course Direction KTS MPH feet Rate Location/Type
08:28PM 39.9000 -86.2833 360° North 162 186 2,500  Level Indianapolis TRACON
08:29PM 39.9315 -86.2509 21° North  Level FlightAware Approximate
08:32PM 40.1142 -86.3047 344° North 160 184 5,300  Level Chicago Center
08:33PM 40.1586 -86.3172 348° North 161 185 5,700 360 Climbing Chicago Center
08:34PM 40.2028 -86.3319 346° North 162 186 6,100 180 Climbing Chicago Center
08:35PM 40.2444 -86.3450 347° North 167 192 6,100  Level Chicago Center
08:36PM 40.1720 -86.1600 15° North  Level FlightAware Approximate
08:36PM 40.2919 -86.3586 348° North 168 193 6,100  Level Chicago Center
08:37PM 40.2066 -86.1479 13° North  Level FlightAware Approximate
08:37PM 40.3353 -86.3719 347° North 167 192 6,100  Level Chicago Center
08:38PM 40.2387 -86.1795 344° North  Level Estimated
08:38PM 40.3828 -86.3883 345° North 168 193 6,100  Level Chicago Center
08:40PM 40.4397 -86.4036 348° North 168 193 6,100  Level Chicago Center
08:40PM 40.4758 -86.4128 349° North 167 192 6,100 -120 Level Chicago Center
08:41PM 40.4853 -86.4153 349° North 166 191 6,000  Descending Chicago Center
08:41PM 40.5192 -86.4264 346° North 168 193 6,100 60 Climbing Chicago Center
08:42PM 40.5317 -86.4294 349° North 168 193 6,100  Level Chicago Center
08:42PM 40.5667 -86.4403 347° North 166 191 6,100  Level Chicago Center
08:43PM 40.5767 -86.4428 349° North 165 190 6,100  Level Chicago Center
08:43PM 40.6142 -86.4567 344° North 166 191 6,100 -120 Level Chicago Center
08:44PM 40.6217 -86.4581 352° North 165 190 6,000  Descending Chicago Center
08:44PM 40.6575 -86.4703 345° North 167 192 6,100 60 Climbing Chicago Center
08:45PM 40.6753 -86.4731 353° North 167 192 6,100  Level Chicago Center
08:45PM 40.7053 -86.4814 348° North 168 193 6,100  Level Chicago Center
08:46PM 40.7225 -86.4872 346° North 167 192 6,100 -120 Level Chicago Center
08:46PM 40.7486 -86.4950 347° North 167 192 6,000  Descending Chicago Center
08:47PM 40.7669 -86.5006 347° North 165 190 6,100 60 Climbing Chicago Center
08:47PM 40.7961 -86.5086 348° North 167 192 6,100  Level Chicago Center
08:48PM 40.8125 -86.5144 345° North 167 192 6,100  Level Chicago Center
08:49PM 40.8578 -86.5267 348° North 167 192 6,100  Level Chicago Center
08:50PM 40.9033 -86.5408 347° North 168 193 6,100  Level Chicago Center
08:51PM 40.9581 -86.5578 347° North 169 194 6,100  Level Chicago Center
08:52PM 41.0031 -86.5692 349° North 168 193 6,100  Level Chicago Center
08:53PM 41.0500 -86.5825 348° North 169 194 6,100 -60 Level Chicago Center
08:54PM 41.0964 -86.5947 349° North 170 196 6,000  Descending Chicago Center
08:55PM 41.1383 -86.6178 338° Northwest 171 197 6,100  Climbing Chicago Center
08:56PM 41.1700 -86.6619 314° West 168 193 6,000  Descending Chicago Center
08:57PM 41.2119 -86.7142 317° Northwest 170 196 6,100  Climbing Chicago Center
08:58PM 41.2439 -86.7550 316° Northwest 167 192 6,100  Level Chicago Center
08:59PM 41.2764 -86.7978 315° West 166 191 6,100  Level Chicago Center
09:00PM 41.2964 -86.8522 296° West 165 190 6,100  Level Chicago Center
09:01PM 41.3172 -86.9192 293° West 166 191 6,100  Level Chicago Center
09:02PM 41.3353 -86.9742 294° West 164 189 6,100  Level Chicago Center
09:03PM 41.3531 -87.0281 294° West 162 186 6,100 -60 Level Chicago Center
09:04PM 41.3700 -87.0833 292° West 162 186 6,000 -60 Descending Chicago Center
09:05PM 41.3917 -87.1333 300° West 159 183 6,000  Level Chicago Center
09:06PM 41.4167 -87.1667 315° West 160 184 6,000 -300 Level Chicago TRACON
09:07PM 41.4500 -87.2167 312° West 172 198 5,600 -480 Descending Chicago TRACON
09:08PM 41.4667 -87.2667 294° West 180 207 5,100 -480 Descending Chicago TRACON
09:09PM 41.5000 -87.3000 323° Northwest 181 208 4,700 -480 Descending Chicago TRACON
09:10PM 41.5333 -87.3667 304° West 183 211 4,200 -480 Descending Chicago TRACON
09:11PM 41.5525 -87.3931 314° West 183 211 3,900 -600 Descending Chicago Center
09:12PM 41.5717 -87.4669 289° West 189 217 3,200 -480 Descending Chicago Center
09:13PM 41.5803 -87.5300 280° West 181 208 3,000 -120 Descending Chicago Center
09:14PM 41.6208 -87.5358 354° North 179 206 3,000  Level Chicago Center
09:15PM 41.6542 -87.5678 324° Northwest 174 200 3,000  Level Chicago Center
09:16PM 41.6833 -87.6131 311° West 167 192 3,000 -300 Level Chicago Center
09:17PM 41.7167 -87.6667 310° West 149 171 2,400 -720 Descending Chicago TRACON
09:18PM 41.7500 -87.7000 323° Northwest 148 170 1,600 -780 Descending Chicago TRACON
09:19PM 41.7667 -87.7333 304° West 114 131 900 -720 Descending Chicago TRACON